createdAt,value
2022-12-17T00:00:07.301Z,98922.52
2022-12-17T00:03:19.545Z,98928.95
2022-12-17T00:06:06.608Z,98934.41
2022-12-17T00:08:53.537Z,98929.03
2022-12-17T00:11:40.380Z,98927.55
2022-12-17T00:14:27.097Z,98920.66
2022-12-17T00:17:13.846Z,98916.85
2022-12-17T00:20:00.603Z,98919.48
2022-12-17T00:22:47.577Z,98915.30
2022-12-17T00:25:34.932Z,98918.74
2022-12-17T00:28:22.154Z,98916.45
2022-12-17T00:31:12.258Z,98915.55
2022-12-17T00:33:59.152Z,98917.98
2022-12-17T00:36:47.157Z,98930.36
2022-12-17T00:39:34.046Z,98947.57
2022-12-17T00:42:21.022Z,98953.00
2022-12-17T00:45:07.959Z,98953.04
2022-12-17T00:47:55.065Z,98960.18
2022-12-17T00:50:43.692Z,98958.62
2022-12-17T00:53:30.480Z,98957.04
2022-12-17T00:56:17.382Z,98954.77
2022-12-17T00:59:04.112Z,98960.86
2022-12-17T01:01:51.063Z,98965.59
2022-12-17T01:04:39.372Z,98967.91
2022-12-17T01:07:26.483Z,98972.25
2022-12-17T01:10:13.315Z,98976.96
2022-12-17T01:13:00.280Z,98975.92
2022-12-17T01:15:47.081Z,98973.15
2022-12-17T01:18:38.420Z,98968.15
2022-12-17T01:21:25.141Z,98973.79
2022-12-17T01:24:13.509Z,98987.24
2022-12-17T01:27:00.688Z,98996.48
2022-12-17T01:29:47.336Z,99007.61
2022-12-17T01:32:35.359Z,99006.19
2022-12-17T01:35:22.638Z,99008.06
2022-12-17T01:38:10.477Z,99012.05
2022-12-17T01:40:57.092Z,99006.84
2022-12-17T01:43:56.411Z,99012.47
2022-12-17T01:46:47.553Z,99019.10
2022-12-17T01:49:36.835Z,99014.09
2022-12-17T01:52:25.442Z,99005.13
2022-12-17T01:55:12.781Z,98994.81
2022-12-17T01:57:59.499Z,98989.45
2022-12-17T02:00:46.507Z,98983.41
2022-12-17T02:03:35.983Z,98982.66
2022-12-17T02:06:41.191Z,98983.93
2022-12-17T02:10:13.422Z,98989.48
2022-12-17T02:13:10.131Z,98985.45
2022-12-17T02:16:05.634Z,98986.30
2022-12-17T02:19:03.922Z,98987.52
2022-12-17T02:21:54.607Z,98984.43
2022-12-17T02:24:54.832Z,98990.29
2022-12-17T02:27:43.441Z,98988.48
2022-12-17T02:30:31.054Z,98989.36
2022-12-17T02:33:19.872Z,98986.23
2022-12-17T02:36:18.920Z,98983.12
2022-12-17T02:39:05.857Z,98995.11
2022-12-17T02:42:08.540Z,99002.91
2022-12-17T02:44:57.204Z,99001.88
2022-12-17T02:47:44.999Z,98995.48
2022-12-17T02:50:32.658Z,98996.04
2022-12-17T02:53:21.998Z,99001.61
2022-12-17T02:56:08.773Z,99018.86
2022-12-17T02:58:57.258Z,99048.98
2022-12-17T03:02:04.182Z,99083.42
2022-12-17T03:04:51.308Z,99096.45
2022-12-17T03:07:38.303Z,99097.27
2022-12-17T03:10:25.797Z,99099.86
2022-12-17T03:13:12.744Z,99089.26
2022-12-17T03:15:59.614Z,99097.08
2022-12-17T03:18:46.340Z,99103.84
2022-12-17T03:21:33.365Z,99103.64
2022-12-17T03:24:20.188Z,99099.45
2022-12-17T03:27:06.879Z,99091.31
2022-12-17T03:29:53.503Z,99085.27
2022-12-17T03:32:40.596Z,99071.25
2022-12-17T03:35:27.600Z,99066.14
2022-12-17T03:38:14.315Z,99060.69
2022-12-17T03:41:01.003Z,99060.26
2022-12-17T03:43:48.101Z,99062.89
2022-12-17T03:46:35.270Z,99062.34
2022-12-17T03:49:22.004Z,99058.00
2022-12-17T03:52:09.172Z,99066.16
2022-12-17T03:54:56.184Z,99071.62
2022-12-17T03:57:43.116Z,99069.06
2022-12-17T04:00:30.260Z,99066.09
2022-12-17T04:03:17.425Z,99061.27
2022-12-17T04:06:04.462Z,99063.55
2022-12-17T04:08:51.253Z,99072.95
2022-12-17T04:11:38.092Z,99084.79
2022-12-17T04:14:25.015Z,99085.71
2022-12-17T04:17:11.744Z,99079.65
2022-12-17T04:19:58.646Z,99091.63
2022-12-17T04:22:45.743Z,99105.53
2022-12-17T04:25:32.581Z,99110.74
2022-12-17T04:28:19.620Z,99115.41
2022-12-17T04:31:06.761Z,99121.52
2022-12-17T04:33:53.588Z,99131.56
2022-12-17T04:36:40.103Z,99137.44
2022-12-17T04:39:28.448Z,99140.55
2022-12-17T04:42:15.066Z,99142.28
2022-12-17T04:45:01.956Z,99144.73
2022-12-17T04:47:48.725Z,99140.36
2022-12-17T04:50:36.080Z,99135.89
2022-12-17T04:53:25.280Z,99131.41
2022-12-17T04:56:15.630Z,99115.66
2022-12-17T04:59:02.641Z,99109.79
2022-12-17T05:01:49.910Z,99113.79
2022-12-17T05:04:36.633Z,99119.20
2022-12-17T05:07:23.701Z,99116.81
2022-12-17T05:10:10.406Z,99121.17
2022-12-17T05:12:57.327Z,99121.90
2022-12-17T05:15:48.330Z,99123.14
2022-12-17T05:18:38.390Z,99128.15
2022-12-17T05:21:28.100Z,99136.64
2022-12-17T05:24:19.341Z,99146.19
2022-12-17T05:27:06.629Z,99147.40
2022-12-17T05:29:53.690Z,99145.70
2022-12-17T05:32:40.378Z,99145.73
2022-12-17T05:35:28.745Z,99143.37
2022-12-17T05:38:23.101Z,99138.02
2022-12-17T05:41:10.905Z,99135.80
2022-12-17T05:43:57.793Z,99149.71
2022-12-17T05:46:45.060Z,99156.20
2022-12-17T05:49:32.474Z,99158.16
2022-12-17T05:52:19.479Z,99154.36
2022-12-17T05:55:06.456Z,99156.27
2022-12-17T05:57:56.453Z,99159.23
2022-12-17T06:00:44.066Z,99162.36
2022-12-17T06:03:31.223Z,99164.27
2022-12-17T06:06:18.042Z,99172.44
2022-12-17T06:09:05.136Z,99174.16
2022-12-17T06:11:51.766Z,99171.77
2022-12-17T06:14:38.787Z,99175.96
2022-12-17T06:17:25.648Z,99182.25
2022-12-17T06:20:12.617Z,99191.13
2022-12-17T06:22:59.209Z,99199.69
2022-12-17T06:25:45.916Z,99206.79
2022-12-17T06:28:32.926Z,99218.95
2022-12-17T06:31:19.705Z,99229.54
2022-12-17T06:34:06.449Z,99230.59
2022-12-17T06:36:53.543Z,99232.17
2022-12-17T06:39:40.176Z,99231.67
2022-12-17T06:42:27.198Z,99234.61
2022-12-17T06:45:13.907Z,99238.13
2022-12-17T06:48:00.782Z,99246.09
2022-12-17T06:50:47.476Z,99250.77
2022-12-17T06:53:34.478Z,99258.73
2022-12-17T06:56:21.689Z,99266.54
2022-12-17T06:59:13.103Z,99278.86
2022-12-17T07:01:59.900Z,99288.44
2022-12-17T07:04:46.846Z,99288.95
2022-12-17T07:07:33.702Z,99293.45
2022-12-17T07:10:20.370Z,99307.32
2022-12-17T07:13:07.440Z,99323.08
2022-12-17T07:15:56.669Z,99327.33
2022-12-17T07:18:43.282Z,99321.70
2022-12-17T07:21:30.227Z,99316.99
2022-12-17T07:24:17.355Z,99319.73
2022-12-17T07:27:04.103Z,99321.23
2022-12-17T07:29:50.944Z,99328.60
2022-12-17T07:32:37.757Z,99336.21
2022-12-17T07:35:25.384Z,99333.68
2022-12-17T07:38:23.505Z,99333.36
2022-12-17T07:41:10.358Z,99334.65
2022-12-17T07:43:57.054Z,99334.45
2022-12-17T07:46:43.787Z,99339.22
2022-12-17T07:49:30.859Z,99341.20
2022-12-17T07:52:19.580Z,99350.30
2022-12-17T07:55:06.590Z,99357.48
2022-12-17T07:57:53.493Z,99359.85
2022-12-17T08:00:44.658Z,99355.19
2022-12-17T08:03:35.328Z,99363.65
2022-12-17T08:06:23.156Z,99373.63
2022-12-17T08:09:10.041Z,99382.05
2022-12-17T08:11:57.239Z,99383.69
2022-12-17T08:14:43.944Z,99385.56
2022-12-17T08:17:30.879Z,99385.88
2022-12-17T08:20:18.042Z,99384.34
2022-12-17T08:23:05.027Z,99385.44
2022-12-17T08:25:52.024Z,99397.52
2022-12-17T08:28:50.541Z,99407.27
2022-12-17T08:31:38.455Z,99419.77
2022-12-17T08:34:25.716Z,99423.89
2022-12-17T08:37:12.848Z,99425.48
2022-12-17T08:39:59.570Z,99423.20
2022-12-17T08:42:46.373Z,99429.59
2022-12-17T08:45:33.764Z,99429.42
2022-12-17T08:48:25.872Z,99431.95
2022-12-17T08:51:12.948Z,99433.16
2022-12-17T08:53:59.792Z,99433.98
2022-12-17T08:56:47.059Z,99439.24
2022-12-17T08:59:34.228Z,99438.14
2022-12-17T09:02:24.611Z,99439.44
2022-12-17T09:05:20.566Z,99446.33
2022-12-17T09:08:08.044Z,99446.20
2022-12-17T09:10:55.168Z,99447.98
2022-12-17T09:13:42.284Z,99450.67
2022-12-17T09:16:29.402Z,99450.08
2022-12-17T09:19:16.588Z,99449.03
2022-12-17T09:22:04.294Z,99449.66
2022-12-17T09:24:51.800Z,99453.02
2022-12-17T09:27:38.922Z,99452.43
2022-12-17T09:30:26.730Z,99453.04
2022-12-17T09:33:13.583Z,99456.10
2022-12-17T09:36:01.383Z,99455.89
2022-12-17T09:38:48.291Z,99452.44
2022-12-17T09:41:56.328Z,99448.46
2022-12-17T09:45:06.900Z,99440.50
2022-12-17T09:48:19.134Z,99435.89
2022-12-17T09:51:10.647Z,99433.90
2022-12-17T09:54:10.095Z,99427.30
2022-12-17T09:56:59.536Z,99420.71
2022-12-17T09:59:52.334Z,99419.30
2022-12-17T10:02:44.054Z,99424.77
2022-12-17T10:05:43.936Z,99427.09
2022-12-17T10:08:36.118Z,99431.30
2022-12-17T10:11:47.311Z,99437.12
2022-12-17T10:14:44.465Z,99439.61
2022-12-17T10:17:39.940Z,99441.73
2022-12-17T10:20:42.367Z,99447.95
2022-12-17T10:23:29.385Z,99457.41
2022-12-17T10:26:16.349Z,99462.88
2022-12-17T10:29:03.067Z,99468.27
2022-12-17T10:31:49.671Z,99473.94
2022-12-17T10:34:39.286Z,99477.39
2022-12-17T10:37:38.000Z,99483.29
2022-12-17T10:40:39.615Z,99492.14
2022-12-17T10:43:46.535Z,99492.61
2022-12-17T10:46:53.811Z,99488.30
2022-12-17T10:49:43.844Z,99484.52
2022-12-17T10:52:39.808Z,99483.42
2022-12-17T10:55:38.660Z,99485.55
2022-12-17T10:58:33.131Z,99490.88
2022-12-17T11:01:22.316Z,99489.98
2022-12-17T11:04:18.751Z,99485.97
2022-12-17T11:07:09.908Z,99483.90
2022-12-17T11:10:30.041Z,99484.68
2022-12-17T11:13:22.204Z,99485.67
2022-12-17T11:16:15.624Z,99488.98
2022-12-17T11:19:40.419Z,99494.25
2022-12-17T11:22:56.795Z,99496.23
2022-12-17T11:26:22.500Z,99505.45
2022-12-17T11:29:09.922Z,99503.33
2022-12-17T11:32:26.041Z,99510.98
2022-12-17T11:35:28.347Z,99517.90
2022-12-17T11:38:51.538Z,99523.66
2022-12-17T11:41:53.423Z,99527.19
2022-12-17T11:44:40.231Z,99528.13
2022-12-17T11:47:39.801Z,99535.82
2022-12-17T11:50:52.983Z,99536.89
2022-12-17T11:54:08.409Z,99545.45
2022-12-17T11:57:04.225Z,99559.58
2022-12-17T12:00:02.235Z,99563.83
2022-12-17T12:03:10.525Z,99568.17
2022-12-17T12:06:18.083Z,99563.09
2022-12-17T12:09:19.020Z,99550.35
2022-12-17T12:12:43.744Z,99544.50
2022-12-17T12:15:54.811Z,99542.59
2022-12-17T12:19:30.780Z,99544.96
2022-12-17T12:22:44.787Z,99553.70
2022-12-17T12:25:46.821Z,99567.02
2022-12-17T12:28:51.301Z,99585.17
2022-12-17T12:32:06.300Z,99598.83
2022-12-17T12:34:57.284Z,99599.73
2022-12-17T12:37:45.358Z,99594.23
2022-12-17T12:40:55.575Z,99590.67
2022-12-17T12:43:49.371Z,99584.33
2022-12-17T12:47:01.127Z,99594.37
2022-12-17T12:50:04.414Z,99608.79
2022-12-17T12:52:50.983Z,99615.41
2022-12-17T12:55:37.679Z,99620.17
2022-12-17T12:58:45.727Z,99631.58
2022-12-17T13:01:33.260Z,99645.34
2022-12-17T13:04:34.772Z,99650.98
2022-12-17T13:07:05.677Z,99642.20
2022-12-17T13:09:48.482Z,99644.27
2022-12-17T13:12:28.383Z,99653.38
2022-12-17T13:15:01.052Z,99658.63
2022-12-17T13:17:39.849Z,99656.05
2022-12-17T13:20:28.393Z,99660.95
2022-12-17T13:23:11.742Z,99668.08
2022-12-17T13:25:40.583Z,99675.20
2022-12-17T13:28:35.639Z,99680.42
2022-12-17T13:31:14.272Z,99681.80
2022-12-17T13:34:06.767Z,99690.29
2022-12-17T13:37:07.308Z,99686.80
2022-12-17T13:39:59.708Z,99686.92
2022-12-17T13:42:32.821Z,99693.89
2022-12-17T13:45:02.132Z,99703.13
2022-12-17T13:47:33.381Z,99698.26
2022-12-17T13:50:32.659Z,99698.77
2022-12-17T13:52:53.600Z,99710.54
2022-12-17T13:55:29.290Z,99710.18
2022-12-17T13:57:58.104Z,99713.63
2022-12-17T14:00:29.539Z,99721.07
2022-12-17T14:02:58.067Z,99719.64
2022-12-17T14:05:42.538Z,99729.00
2022-12-17T14:08:17.285Z,99732.82
2022-12-17T14:10:52.241Z,99742.02
2022-12-17T14:13:20.496Z,99745.80
2022-12-17T14:15:52.943Z,99744.89
2022-12-17T14:18:22.184Z,99745.20
2022-12-17T14:20:55.653Z,99747.95
2022-12-17T14:23:30.855Z,99754.04
2022-12-17T14:26:00.082Z,99750.23
2022-12-17T14:28:36.374Z,99748.69
2022-12-17T14:34:11.592Z,99764.55
2022-12-17T14:36:43.019Z,99767.38
2022-12-17T14:39:22.694Z,99773.67
2022-12-17T14:42:10.398Z,99775.09
2022-12-17T14:44:53.331Z,99781.93
2022-12-17T14:47:30.732Z,99788.04
2022-12-17T14:50:17.195Z,99795.90
2022-12-17T14:52:48.957Z,99799.08
2022-12-17T14:55:24.401Z,99804.48
2022-12-17T14:57:54.600Z,99817.36
2022-12-17T15:00:22.803Z,99820.66
2022-12-17T15:02:54.622Z,99825.00
2022-12-17T15:05:23.183Z,99823.81
2022-12-17T15:07:52.188Z,99826.60
2022-12-17T15:10:21.749Z,99829.74
2022-12-17T15:12:51.683Z,99838.09
2022-12-17T15:15:21.955Z,99843.30
2022-12-17T15:17:50.124Z,99845.02
2022-12-17T15:20:20.882Z,99852.83
2022-12-17T15:22:49.012Z,99851.80
2022-12-17T15:25:19.452Z,99855.92
2022-12-17T15:27:47.704Z,99860.61
2022-12-17T15:30:17.935Z,99860.75
2022-12-17T15:32:46.469Z,99861.96
2022-12-17T15:35:15.026Z,99864.55
2022-12-17T15:37:43.149Z,99866.47
2022-12-17T15:40:12.193Z,99868.94
2022-12-17T15:43:04.425Z,99878.49
2022-12-17T15:45:34.329Z,99880.58
2022-12-17T15:48:02.566Z,99880.21
2022-12-17T15:50:30.731Z,99886.48
2022-12-17T15:52:58.996Z,99889.45
2022-12-17T15:55:28.110Z,99898.30
2022-12-17T15:57:56.628Z,99898.65
2022-12-17T16:00:24.922Z,99901.96
2022-12-17T16:02:53.460Z,99903.70
2022-12-17T16:05:23.744Z,99899.89
2022-12-17T16:07:53.240Z,99903.53
2022-12-17T16:10:21.789Z,99906.65
2022-12-17T16:12:50.157Z,99910.64
2022-12-17T16:15:19.371Z,99914.81
2022-12-17T16:17:47.535Z,99915.00
2022-12-17T16:20:15.824Z,99913.77
2022-12-17T16:22:44.757Z,99914.10
2022-12-17T16:25:12.977Z,99921.92
2022-12-17T16:27:41.870Z,99922.79
2022-12-17T16:30:11.532Z,99922.82
2022-12-17T16:32:39.987Z,99925.42
2022-12-17T16:35:08.722Z,99925.09
2022-12-17T16:37:36.988Z,99931.16
2022-12-17T16:40:05.945Z,99933.61
2022-12-17T16:42:34.039Z,99933.43
2022-12-17T16:45:02.105Z,99933.10
2022-12-17T16:47:30.357Z,99938.15
2022-12-17T16:49:58.588Z,99939.55
2022-12-17T16:52:26.738Z,99941.47
2022-12-17T16:54:54.871Z,99949.81
2022-12-17T16:57:22.943Z,99954.87
2022-12-17T16:59:51.169Z,99956.09
2022-12-17T17:02:19.883Z,99962.00
2022-12-17T17:04:48.404Z,99963.38
2022-12-17T17:07:16.597Z,99972.05
2022-12-17T17:09:44.776Z,99976.04
2022-12-17T17:12:13.782Z,99977.77
2022-12-17T17:14:44.575Z,99984.73
2022-12-17T17:17:12.626Z,99988.90
2022-12-17T17:19:40.745Z,99989.92
2022-12-17T17:22:09.008Z,99993.91
2022-12-17T17:24:37.093Z,99995.52
2022-12-17T17:27:05.108Z,100000.38
2022-12-17T17:29:33.324Z,100009.59
2022-12-17T17:32:16.835Z,100013.58
2022-12-17T17:34:45.189Z,100014.45
2022-12-17T17:37:13.900Z,100014.29
2022-12-17T17:39:42.276Z,100021.41
2022-12-17T17:42:10.580Z,100018.80
2022-12-17T17:44:38.613Z,100024.02
2022-12-17T17:47:06.831Z,100028.55
2022-12-17T17:49:35.046Z,100029.92
2022-12-17T17:52:11.442Z,100035.49
2022-12-17T17:54:41.029Z,100038.96
2022-12-17T17:57:10.418Z,100042.08
2022-12-17T17:59:39.831Z,100042.76
2022-12-17T18:02:11.044Z,100046.89
2022-12-17T18:04:40.295Z,100054.84
2022-12-17T18:07:26.610Z,100057.41
2022-12-17T18:09:56.395Z,100062.25
2022-12-17T18:12:43.461Z,100064.34
2022-12-17T18:15:15.354Z,100076.67
2022-12-17T18:17:49.296Z,100077.01
2022-12-17T18:20:18.264Z,100082.23
2022-12-17T18:22:47.090Z,100076.14
2022-12-17T18:25:17.895Z,100077.69
2022-12-17T18:27:47.357Z,100076.81
2022-12-17T18:30:16.575Z,100076.46
2022-12-17T18:32:45.771Z,100072.98
2022-12-17T18:35:14.160Z,100081.36
2022-12-17T18:37:42.592Z,100083.81
2022-12-17T18:40:11.373Z,100090.59
2022-12-17T18:42:58.379Z,100095.82
2022-12-17T18:45:26.725Z,100102.44
2022-12-17T18:47:54.980Z,100104.68
2022-12-17T18:50:23.280Z,100111.49
2022-12-17T18:52:51.744Z,100109.60
2022-12-17T18:55:19.900Z,100111.00
2022-12-17T18:57:51.205Z,100119.37
2022-12-17T19:00:19.680Z,100121.43
2022-12-17T19:02:47.996Z,100126.46
2022-12-17T19:05:16.725Z,100128.91
2022-12-17T19:07:44.983Z,100127.69
2022-12-17T19:10:13.311Z,100121.96
2022-12-17T19:12:41.587Z,100127.21
2022-12-17T19:15:10.518Z,100131.41
2022-12-17T19:17:38.777Z,100134.56
2022-12-17T19:20:07.768Z,100132.98
2022-12-17T19:22:37.609Z,100135.59
2022-12-17T19:25:06.005Z,100141.17
2022-12-17T19:27:34.282Z,100143.77
2022-12-17T19:30:06.643Z,100153.16
2022-12-17T19:32:35.876Z,100158.02
2022-12-17T19:35:04.525Z,100161.34
2022-12-17T19:37:32.669Z,100166.71
2022-12-17T19:40:01.781Z,100170.00
2022-12-17T19:42:36.742Z,100171.39
2022-12-17T19:45:09.678Z,100173.48
2022-12-17T19:47:39.451Z,100177.65
2022-12-17T19:50:10.539Z,100184.97
2022-12-17T19:52:38.962Z,100186.36
2022-12-17T19:55:07.636Z,100189.16
2022-12-17T19:57:36.920Z,100195.77
2022-12-17T20:00:07.479Z,100195.40
2022-12-17T20:02:44.623Z,100198.02
2022-12-17T20:05:13.426Z,100198.54
2022-12-17T20:07:42.578Z,100203.92
2022-12-17T20:10:12.188Z,100210.89
2022-12-17T20:12:41.460Z,100218.02
2022-12-17T20:15:10.309Z,100216.96
2022-12-17T20:17:39.273Z,100221.67
2022-12-17T20:20:09.444Z,100227.73
2022-12-17T20:22:37.879Z,100229.98
2022-12-17T20:25:09.601Z,100237.48
2022-12-17T20:27:39.508Z,100243.05
2022-12-17T20:30:10.736Z,100245.67
2022-12-17T20:32:39.913Z,100243.25
2022-12-17T20:35:08.598Z,100244.63
2022-12-17T20:37:36.821Z,100248.45
2022-12-17T20:40:06.032Z,100255.59
2022-12-17T20:42:37.142Z,100263.24
2022-12-17T20:45:05.932Z,100267.42
2022-12-17T20:47:34.102Z,100272.30
2022-12-17T20:50:03.865Z,100278.77
2022-12-17T20:52:32.135Z,100286.23
2022-12-17T20:55:00.281Z,100290.77
2022-12-17T20:57:28.769Z,100294.42
2022-12-17T20:59:57.082Z,100300.34
2022-12-17T21:02:29.421Z,100302.61
2022-12-17T21:04:57.803Z,100312.86
2022-12-17T21:07:25.936Z,100308.54
2022-12-17T21:09:56.094Z,100318.27
2022-12-17T21:12:45.204Z,100320.16
2022-12-17T21:15:13.613Z,100327.63
2022-12-17T21:17:42.357Z,100326.42
2022-12-17T21:20:14.937Z,100330.77
2022-12-17T21:22:43.926Z,100334.23
2022-12-17T21:25:12.377Z,100331.46
2022-12-17T21:27:41.147Z,100331.47
2022-12-17T21:30:13.422Z,100338.58
2022-12-17T21:32:42.217Z,100343.29
2022-12-17T21:35:11.721Z,100351.80
2022-12-17T21:37:40.259Z,100359.60
2022-12-17T21:40:10.389Z,100364.13
2022-12-17T21:42:58.479Z,100367.95
2022-12-17T21:45:26.752Z,100378.02
2022-12-17T21:47:55.252Z,100378.70
2022-12-17T21:50:23.398Z,100382.55
2022-12-17T21:52:51.705Z,100390.35
2022-12-17T21:55:19.962Z,100391.73
2022-12-17T21:57:48.493Z,100401.80
2022-12-17T22:00:17.563Z,100403.54
2022-12-17T22:02:45.852Z,100410.14
2022-12-17T22:05:17.805Z,100412.75
2022-12-17T22:08:06.600Z,100418.47
2022-12-17T22:10:48.478Z,100422.29
2022-12-17T22:13:37.246Z,100423.67
2022-12-17T22:16:07.901Z,100425.93
2022-12-17T22:18:36.502Z,100429.58
2022-12-17T22:21:05.148Z,100434.61
2022-12-17T22:23:33.317Z,100436.52
2022-12-17T22:26:02.124Z,100437.55
2022-12-17T22:28:30.353Z,100440.67
2022-12-17T22:31:23.795Z,100445.19
2022-12-17T22:34:28.910Z,100453.19
2022-12-17T22:39:19.251Z,100457.70
2022-12-17T22:44:31.511Z,100458.92
2022-12-17T22:44:38.629Z,100460.30
2022-12-17T22:45:25.977Z,100463.27
2022-12-17T22:47:54.612Z,100462.22
2022-12-17T22:50:28.664Z,100462.91
2022-12-17T22:53:01.528Z,100467.27
2022-12-17T22:55:30.637Z,100473.52
2022-12-17T22:57:59.503Z,100472.63
2022-12-17T23:00:32.294Z,100476.10
2022-12-17T23:03:01.044Z,100472.99
2022-12-17T23:05:30.304Z,100475.59
2022-12-17T23:07:59.904Z,100481.16
2022-12-17T23:10:28.977Z,100484.09
2022-12-17T23:12:57.551Z,100484.61
2022-12-17T23:15:30.414Z,100484.25
2022-12-17T23:18:02.179Z,100487.36
2022-12-17T23:20:32.579Z,100495.16
2022-12-17T23:23:01.364Z,100497.78
2022-12-17T23:25:31.468Z,100500.58
2022-12-17T23:28:00.218Z,100507.17
2022-12-17T23:30:32.185Z,100510.99
2022-12-17T23:33:00.720Z,100513.92
2022-12-17T23:35:29.825Z,100517.75
2022-12-17T23:37:58.580Z,100519.66
2022-12-17T23:40:27.088Z,100523.67
2022-12-17T23:42:57.637Z,100526.27
2022-12-17T23:45:26.035Z,100528.02
2022-12-17T23:47:54.475Z,100534.97
2022-12-17T23:50:23.117Z,100535.83
2022-12-17T23:52:51.692Z,100539.13
2022-12-17T23:55:20.507Z,100538.77
2022-12-17T23:57:48.911Z,100545.20
